createdAt,value
2023-02-01T00:00:16.092Z,4.60
2023-02-01T00:02:43.985Z,4.90
2023-02-01T00:05:12.369Z,4.90
2023-02-01T00:07:40.472Z,4.90
2023-02-01T00:10:09.826Z,4.90
2023-02-01T00:12:38.662Z,4.90
2023-02-01T00:15:07.437Z,4.90
2023-02-01T00:17:36.654Z,4.90
2023-02-01T00:20:04.715Z,4.30
2023-02-01T00:22:32.505Z,4.90
2023-02-01T00:25:00.321Z,4.90
2023-02-01T00:27:28.106Z,4.70
2023-02-01T00:29:56.520Z,5.00
2023-02-01T00:32:24.449Z,4.90
2023-02-01T00:34:53.575Z,5.00
2023-02-01T00:37:21.359Z,4.90
2023-02-01T00:39:49.168Z,5.00
2023-02-01T00:42:16.947Z,4.90
2023-02-01T00:44:44.746Z,4.90
2023-02-01T00:47:12.517Z,5.30
2023-02-01T00:49:40.322Z,5.00
2023-02-01T00:52:09.473Z,4.90
2023-02-01T00:54:38.326Z,5.00
2023-02-01T00:57:06.133Z,4.90
2023-02-01T00:59:33.944Z,4.90
2023-02-01T01:02:01.757Z,5.00
2023-02-01T01:04:29.603Z,4.90
2023-02-01T01:06:57.408Z,4.90
2023-02-01T01:09:26.521Z,4.90
2023-02-01T01:11:54.605Z,4.80
2023-02-01T01:14:22.412Z,4.50
2023-02-01T01:16:51.460Z,4.90
2023-02-01T01:19:19.255Z,4.80
2023-02-01T01:21:47.147Z,4.80
2023-02-01T01:24:14.947Z,4.40
2023-02-01T01:26:44.165Z,4.80
2023-02-01T01:29:12.302Z,4.80
2023-02-01T01:31:40.173Z,4.80
2023-02-01T01:34:08.040Z,4.80
2023-02-01T01:36:35.846Z,4.80
2023-02-01T01:39:03.865Z,5.20
2023-02-01T01:41:33.787Z,4.90
2023-02-01T01:44:05.375Z,4.80
2023-02-01T01:46:34.760Z,4.80
2023-02-01T01:49:10.140Z,4.80
2023-02-01T01:51:41.945Z,4.80
2023-02-01T01:54:17.123Z,4.80
2023-02-01T01:56:48.878Z,4.70
2023-02-01T01:59:18.233Z,4.70
2023-02-01T02:01:46.814Z,4.70
2023-02-01T02:04:15.007Z,4.20
2023-02-01T02:06:48.886Z,4.70
2023-02-01T02:09:18.164Z,4.70
2023-02-01T02:11:45.980Z,4.70
2023-02-01T02:14:16.746Z,4.80
2023-02-01T02:17:00.563Z,4.70
2023-02-01T02:20:13.389Z,4.80
2023-02-01T02:23:11.594Z,4.70
2023-02-01T02:25:56.289Z,4.70
2023-02-01T02:28:55.782Z,4.70
2023-02-01T02:31:48.934Z,4.70
2023-02-01T02:34:24.720Z,4.70
2023-02-01T02:37:04.604Z,4.70
2023-02-01T02:39:42.081Z,4.70
2023-02-01T02:42:33.404Z,4.70
2023-02-01T02:45:21.252Z,4.60
2023-02-01T02:47:55.734Z,5.00
2023-02-01T02:50:47.483Z,4.60
2023-02-01T02:53:35.788Z,4.70
2023-02-01T02:56:22.748Z,4.60
2023-02-01T02:59:09.188Z,4.70
2023-02-01T03:01:54.653Z,4.60
2023-02-01T03:04:24.404Z,4.70
2023-02-01T03:06:54.145Z,4.70
2023-02-01T03:09:28.115Z,4.70
2023-02-01T03:12:21.441Z,4.50
2023-02-01T03:14:53.102Z,4.70
2023-02-01T03:17:27.655Z,4.70
2023-02-01T03:19:57.544Z,4.70
2023-02-01T03:22:32.557Z,4.70
2023-02-01T03:25:04.599Z,4.60
2023-02-01T03:27:36.101Z,4.70
2023-02-01T03:30:07.913Z,4.70
2023-02-01T03:32:56.674Z,4.80
2023-02-01T03:35:29.719Z,4.40
2023-02-01T03:38:08.394Z,5.10
2023-02-01T03:40:41.494Z,4.70
2023-02-01T03:43:14.591Z,4.70
2023-02-01T03:45:46.085Z,4.60
2023-02-01T03:48:16.095Z,4.70
2023-02-01T03:50:51.287Z,4.70
2023-02-01T03:53:22.773Z,4.70
2023-02-01T03:55:52.588Z,5.00
2023-02-01T03:58:22.376Z,4.70
2023-02-01T04:00:53.637Z,4.70
2023-02-01T04:03:22.597Z,4.60
2023-02-01T04:05:50.587Z,4.70
2023-02-01T04:08:20.009Z,4.70
2023-02-01T04:10:47.798Z,4.70
2023-02-01T04:13:15.715Z,4.70
2023-02-01T04:15:44.071Z,4.50
2023-02-01T04:18:11.865Z,4.70
2023-02-01T04:20:39.650Z,4.70
2023-02-01T04:23:07.449Z,5.10
2023-02-01T04:25:36.599Z,4.80
2023-02-01T04:28:05.737Z,4.70
2023-02-01T04:30:33.604Z,4.70
2023-02-01T04:33:01.473Z,4.70
2023-02-01T04:35:29.253Z,4.80
2023-02-01T04:37:57.060Z,4.70
2023-02-01T04:40:25.309Z,4.70
2023-02-01T04:42:54.652Z,4.70
2023-02-01T04:45:22.428Z,4.70
2023-02-01T04:47:50.507Z,4.70
2023-02-01T04:50:18.635Z,4.70
2023-02-01T04:52:47.176Z,4.80
2023-02-01T04:55:15.253Z,4.70
2023-02-01T04:57:43.093Z,4.70
2023-02-01T05:00:15.124Z,4.70
2023-02-01T05:02:42.927Z,4.80
2023-02-01T05:05:11.043Z,4.40
2023-02-01T05:07:38.907Z,4.80
2023-02-01T05:10:07.373Z,4.80
2023-02-01T05:12:52.565Z,4.80
2023-02-01T05:15:21.725Z,4.80
2023-02-01T05:17:49.560Z,4.90
2023-02-01T05:20:17.618Z,4.30
2023-02-01T05:22:45.427Z,4.80
2023-02-01T05:25:13.238Z,4.50
2023-02-01T05:27:41.035Z,4.80
2023-02-01T05:30:10.155Z,4.80
2023-02-01T05:32:39.361Z,4.80
2023-02-01T05:35:08.090Z,4.80
2023-02-01T05:37:35.960Z,4.80
2023-02-01T05:40:03.814Z,4.70
2023-02-01T05:42:31.624Z,4.80
2023-02-01T05:44:59.438Z,4.80
2023-02-01T05:47:27.294Z,4.80
2023-02-01T05:49:56.443Z,4.80
2023-02-01T05:52:24.236Z,4.60
2023-02-01T05:54:53.567Z,4.80
2023-02-01T05:57:21.465Z,4.80
2023-02-01T05:59:49.734Z,5.00
2023-02-01T06:02:17.900Z,4.80
2023-02-01T06:04:45.737Z,4.50
2023-02-01T06:07:14.921Z,4.60
2023-02-01T06:09:42.758Z,4.70
2023-02-01T06:12:10.576Z,4.80
2023-02-01T06:14:38.809Z,4.70
2023-02-01T06:17:07.883Z,5.40
2023-02-01T06:19:35.721Z,4.80
2023-02-01T06:22:07.036Z,4.80
2023-02-01T06:24:36.208Z,4.80
2023-02-01T06:27:04.014Z,4.80
2023-02-01T06:29:31.808Z,4.80
2023-02-01T06:31:59.670Z,4.70
2023-02-01T06:34:27.550Z,4.80
2023-02-01T06:36:55.924Z,4.80
2023-02-01T06:39:23.717Z,4.80
2023-02-01T06:41:52.881Z,4.80
2023-02-01T06:44:21.778Z,4.80
2023-02-01T06:46:49.620Z,4.80
2023-02-01T06:49:17.467Z,4.80
2023-02-01T06:51:45.257Z,4.80
2023-02-01T06:54:13.051Z,4.80
2023-02-01T06:56:41.071Z,4.80
2023-02-01T06:59:11.638Z,4.80
2023-02-01T07:01:39.541Z,5.10
2023-02-01T07:04:07.652Z,4.90
2023-02-01T07:06:35.463Z,4.80
2023-02-01T07:09:03.295Z,4.90
2023-02-01T07:11:31.580Z,5.30
2023-02-01T07:13:59.418Z,4.90
2023-02-01T07:16:29.972Z,4.90
2023-02-01T07:18:57.933Z,5.10
2023-02-01T07:21:25.791Z,4.40
2023-02-01T07:23:53.605Z,4.90
2023-02-01T07:26:21.882Z,4.90
2023-02-01T07:28:49.887Z,4.60
2023-02-01T07:31:21.879Z,4.90
2023-02-01T07:33:53.405Z,4.90
2023-02-01T07:36:21.666Z,4.60
2023-02-01T07:38:49.474Z,5.00
2023-02-01T07:41:17.611Z,5.00
2023-02-01T07:43:45.992Z,5.00
2023-02-01T07:46:16.215Z,5.00
2023-02-01T07:48:44.365Z,5.10
2023-02-01T07:51:15.718Z,5.00
2023-02-01T07:53:44.433Z,5.10
2023-02-01T07:56:14.769Z,5.10
2023-02-01T07:58:42.762Z,5.10
2023-02-01T08:01:22.121Z,5.10
2023-02-01T08:03:50.625Z,5.10
2023-02-01T08:06:20.883Z,5.20
2023-02-01T08:08:48.826Z,5.10
2023-02-01T08:11:18.097Z,5.10
2023-02-01T08:13:46.133Z,5.20
2023-02-01T08:16:16.097Z,5.20
2023-02-01T08:18:44.671Z,5.20
2023-02-01T08:21:14.407Z,5.30
2023-02-01T08:23:44.523Z,5.20
2023-02-01T08:26:15.330Z,5.20
2023-02-01T08:28:45.266Z,5.20
2023-02-01T08:31:15.696Z,5.00
2023-02-01T08:33:44.420Z,5.30
2023-02-01T08:36:13.454Z,5.60
2023-02-01T08:38:43.026Z,5.30
2023-02-01T08:41:12.853Z,5.30
2023-02-01T08:43:40.949Z,5.30
2023-02-01T08:46:09.463Z,5.30
2023-02-01T08:48:37.840Z,5.40
2023-02-01T08:51:06.766Z,5.80
2023-02-01T08:53:34.656Z,5.40
2023-02-01T08:56:04.179Z,5.40
2023-02-01T08:58:32.025Z,5.40
2023-02-01T09:01:04.113Z,5.50
2023-02-01T09:03:31.933Z,4.90
2023-02-01T09:06:02.480Z,5.50
2023-02-01T09:08:30.509Z,5.50
2023-02-01T09:11:03.173Z,5.60
2023-02-01T09:13:32.962Z,5.60
2023-02-01T09:16:01.185Z,5.60
2023-02-01T09:18:29.236Z,5.60
2023-02-01T09:20:57.119Z,5.60
2023-02-01T09:23:25.004Z,5.60
2023-02-01T09:25:53.105Z,5.70
2023-02-01T09:28:21.556Z,5.70
2023-02-01T09:30:50.756Z,5.70
2023-02-01T09:33:18.812Z,5.70
2023-02-01T09:35:46.592Z,5.70
2023-02-01T09:38:14.496Z,6.20
2023-02-01T09:40:47.296Z,5.70
2023-02-01T09:43:27.324Z,5.70
2023-02-01T09:46:06.768Z,5.80
2023-02-01T09:48:39.195Z,5.80
2023-02-01T09:51:14.170Z,5.80
2023-02-01T09:53:45.381Z,5.30
2023-02-01T09:56:16.294Z,5.80
2023-02-01T09:58:48.088Z,5.80
2023-02-01T10:01:21.300Z,5.80
2023-02-01T10:03:49.716Z,5.80
2023-02-01T10:06:31.166Z,5.90
2023-02-01T10:09:31.795Z,5.90
2023-02-01T10:12:19.082Z,5.90
2023-02-01T10:14:56.815Z,5.90
2023-02-01T10:17:47.143Z,5.80
2023-02-01T10:20:25.307Z,5.80
2023-02-01T10:23:26.845Z,5.90
2023-02-01T10:25:55.735Z,5.90
2023-02-01T10:28:26.006Z,5.90
2023-02-01T10:31:00.333Z,5.90
2023-02-01T10:33:35.253Z,5.90
2023-02-01T10:36:12.877Z,5.90
2023-02-01T10:38:40.734Z,5.90
2023-02-01T10:41:15.393Z,5.80
2023-02-01T10:43:44.046Z,5.80
2023-02-01T10:46:11.877Z,5.80
2023-02-01T10:48:41.854Z,5.80
2023-02-01T10:51:16.776Z,5.70
2023-02-01T10:53:50.415Z,5.90
2023-02-01T10:56:25.122Z,5.80
2023-02-01T10:58:54.037Z,5.70
2023-02-01T11:01:33.151Z,5.60
2023-02-01T11:04:03.315Z,5.90
2023-02-01T11:06:34.437Z,5.80
2023-02-01T11:09:12.206Z,5.90
2023-02-01T11:11:58.756Z,5.90
2023-02-01T11:14:38.952Z,5.80
2023-02-01T11:17:28.733Z,5.80
2023-02-01T11:20:01.515Z,5.80
2023-02-01T11:22:30.625Z,5.30
2023-02-01T11:24:59.076Z,5.40
2023-02-01T11:27:28.207Z,5.30
2023-02-01T11:30:01.299Z,5.70
2023-02-01T11:32:29.881Z,5.70
2023-02-01T11:35:02.411Z,5.70
2023-02-01T11:37:34.386Z,5.90
2023-02-01T11:40:04.962Z,5.70
2023-02-01T11:42:33.035Z,5.70
2023-02-01T11:45:21.138Z,5.70
2023-02-01T11:47:53.640Z,5.60
2023-02-01T11:50:32.006Z,5.60
2023-02-01T11:53:13.941Z,5.70
2023-02-01T11:55:53.348Z,5.70
2023-02-01T11:58:33.437Z,5.70
2023-02-01T12:01:14.978Z,5.70
2023-02-01T12:04:27.565Z,5.70
2023-02-01T12:06:59.333Z,5.70
2023-02-01T12:09:39.596Z,5.70
2023-02-01T12:12:14.235Z,5.80
2023-02-01T12:14:58.597Z,5.70
2023-02-01T12:17:44.898Z,5.70
2023-02-01T12:20:31.063Z,5.70
2023-02-01T12:23:14.077Z,5.70
2023-02-01T12:25:55.881Z,5.70
2023-02-01T12:28:36.283Z,5.80
2023-02-01T12:31:24.912Z,5.70
2023-02-01T12:34:09.627Z,5.70
2023-02-01T12:36:44.595Z,5.70
2023-02-01T12:39:24.999Z,5.60
2023-02-01T12:42:00.197Z,5.70
2023-02-01T12:44:52.689Z,5.70
2023-02-01T12:47:26.667Z,5.70
2023-02-01T12:50:00.125Z,5.70
2023-02-01T12:52:36.097Z,5.70
2023-02-01T12:55:10.201Z,5.70
2023-02-01T12:57:42.066Z,5.70
2023-02-01T13:00:23.092Z,5.70
2023-02-01T13:02:58.887Z,5.70
2023-02-01T13:05:31.783Z,5.70
2023-02-01T13:08:02.065Z,5.70
2023-02-01T13:10:36.080Z,5.70
2023-02-01T13:13:12.370Z,5.70
2023-02-01T13:15:44.993Z,5.70
2023-02-01T13:18:21.390Z,5.70
2023-02-01T13:20:55.378Z,5.70
2023-02-01T13:23:29.553Z,5.70
2023-02-01T13:25:58.872Z,5.70
2023-02-01T13:28:29.653Z,5.60
2023-02-01T13:31:16.503Z,6.50
2023-02-01T13:34:05.144Z,5.80
2023-02-01T13:36:57.369Z,5.80
2023-02-01T13:39:47.610Z,5.80
2023-02-01T13:42:20.656Z,5.80
2023-02-01T13:44:51.846Z,5.80
2023-02-01T13:47:26.064Z,5.80
2023-02-01T13:49:56.298Z,5.80
2023-02-01T13:52:30.223Z,5.80
2023-02-01T13:55:17.727Z,5.80
2023-02-01T13:57:47.847Z,5.80
2023-02-01T14:00:27.224Z,5.80
2023-02-01T14:03:16.633Z,5.80
2023-02-01T14:06:15.850Z,5.70
2023-02-01T14:08:53.737Z,5.70
2023-02-01T14:11:37.208Z,5.70
2023-02-01T14:14:44.624Z,5.70
2023-02-01T14:17:38.291Z,5.70
2023-02-01T14:20:51.909Z,5.60
2023-02-01T14:23:25.668Z,5.60
2023-02-01T14:26:13.049Z,5.60
2023-02-01T14:28:46.596Z,5.60
2023-02-01T14:31:28.345Z,5.60
2023-02-01T14:34:01.038Z,5.60
2023-02-01T14:36:40.631Z,5.60
2023-02-01T14:39:22.089Z,5.70
2023-02-01T14:41:54.617Z,5.60
2023-02-01T14:44:34.950Z,5.60
2023-02-01T14:47:21.307Z,5.60
2023-02-01T14:49:55.976Z,5.60
2023-02-01T14:52:33.315Z,5.60
2023-02-01T14:55:07.553Z,5.60
2023-02-01T14:57:39.434Z,5.60
2023-02-01T15:00:18.266Z,5.50
2023-02-01T15:02:50.481Z,5.50
2023-02-01T15:05:25.172Z,5.50
2023-02-01T15:07:53.609Z,5.60
2023-02-01T15:10:24.584Z,5.50
2023-02-01T15:12:53.407Z,5.60
2023-02-01T15:15:23.903Z,5.30
2023-02-01T15:17:54.647Z,5.60
2023-02-01T15:20:26.902Z,5.60
2023-02-01T15:22:56.250Z,5.60
2023-02-01T15:25:26.866Z,5.60
2023-02-01T15:27:55.263Z,5.60
2023-02-01T15:30:25.210Z,5.60
2023-02-01T15:32:54.001Z,5.60
2023-02-01T15:35:38.651Z,5.60
2023-02-01T15:38:36.414Z,5.60
2023-02-01T15:41:08.397Z,5.60
2023-02-01T15:43:39.870Z,5.60
2023-02-01T15:46:13.229Z,5.60
2023-02-01T15:48:45.892Z,5.80
2023-02-01T15:51:18.568Z,5.60
2023-02-01T15:53:52.561Z,5.60
2023-02-01T15:56:25.615Z,5.70
2023-02-01T15:58:59.088Z,5.60
2023-02-01T16:01:27.066Z,5.60
2023-02-01T16:04:06.256Z,5.60
2023-02-01T16:06:36.140Z,5.50
2023-02-01T16:09:12.527Z,5.60
2023-02-01T16:11:50.253Z,5.50
2023-02-01T16:14:18.095Z,5.50
2023-02-01T16:16:45.907Z,5.60
2023-02-01T16:19:13.734Z,5.70
2023-02-01T16:21:42.935Z,5.50
2023-02-01T16:24:10.841Z,5.50
2023-02-01T16:26:39.387Z,5.50
2023-02-01T16:29:07.968Z,5.50
2023-02-01T16:31:38.146Z,5.80
2023-02-01T16:34:07.298Z,5.50
2023-02-01T16:36:35.976Z,5.50
2023-02-01T16:39:05.189Z,5.50
2023-02-01T16:41:32.987Z,5.50
2023-02-01T16:44:00.786Z,5.40
2023-02-01T16:46:32.345Z,5.50
2023-02-01T16:49:01.523Z,5.40
2023-02-01T16:51:33.556Z,5.40
2023-02-01T16:54:01.869Z,5.40
2023-02-01T16:56:34.650Z,5.40
2023-02-01T16:59:02.582Z,5.40
2023-02-01T17:01:30.635Z,5.50
2023-02-01T17:03:58.611Z,5.40
2023-02-01T17:06:28.691Z,5.40
2023-02-01T17:08:59.014Z,5.90
2023-02-01T17:11:27.724Z,5.40
2023-02-01T17:13:57.433Z,5.40
2023-02-01T17:16:29.596Z,5.50
2023-02-01T17:18:59.361Z,5.40
2023-02-01T17:21:29.695Z,5.40
2023-02-01T17:23:58.801Z,5.50
2023-02-01T17:26:26.971Z,5.50
2023-02-01T17:28:56.161Z,5.50
2023-02-01T17:31:24.467Z,5.50
2023-02-01T17:33:52.378Z,5.50
2023-02-01T17:36:20.218Z,5.50
2023-02-01T17:38:56.848Z,5.50
2023-02-01T17:41:32.914Z,5.50
2023-02-01T17:44:03.105Z,6.20
2023-02-01T17:46:32.907Z,5.50
2023-02-01T17:49:01.350Z,5.50
2023-02-01T17:51:31.768Z,5.50
2023-02-01T17:53:59.552Z,5.50
2023-02-01T17:56:27.505Z,5.50
2023-02-01T17:58:56.187Z,5.50
2023-02-01T18:01:26.277Z,5.50
2023-02-01T18:03:54.108Z,5.50
2023-02-01T18:06:24.076Z,5.50
2023-02-01T18:08:51.882Z,5.50
2023-02-01T18:11:21.572Z,5.50
2023-02-01T18:13:50.187Z,5.50
2023-02-01T18:16:20.631Z,5.50
2023-02-01T18:18:50.666Z,5.50
2023-02-01T18:21:19.631Z,5.50
2023-02-01T18:23:47.746Z,5.60
2023-02-01T18:26:17.549Z,5.60
2023-02-01T18:28:45.764Z,5.30
2023-02-01T18:31:23.208Z,5.50
2023-02-01T18:33:53.564Z,5.50
2023-02-01T18:36:21.953Z,5.60
2023-02-01T18:38:49.964Z,5.50
2023-02-01T18:41:20.737Z,5.50
2023-02-01T18:43:49.124Z,5.50
2023-02-01T18:46:17.159Z,5.50
2023-02-01T18:48:45.297Z,5.50
2023-02-01T18:51:19.761Z,5.50
2023-02-01T18:53:47.740Z,5.50
2023-02-01T18:56:18.109Z,5.50
2023-02-01T18:58:45.999Z,5.50
2023-02-01T19:01:18.300Z,5.50
2023-02-01T19:03:48.257Z,5.50
2023-02-01T19:06:20.122Z,5.50
2023-02-01T19:08:48.668Z,5.50
2023-02-01T19:11:16.463Z,5.50
2023-02-01T19:13:44.227Z,5.50
2023-02-01T19:16:13.889Z,5.60
2023-02-01T19:18:41.819Z,5.50
2023-02-01T19:21:11.961Z,5.60
2023-02-01T19:23:42.108Z,5.50
2023-02-01T19:26:12.236Z,5.50
2023-02-01T19:28:40.167Z,5.60
2023-02-01T19:31:09.611Z,5.60
2023-02-01T19:33:37.637Z,5.60
2023-02-01T19:36:09.250Z,5.60
2023-02-01T19:38:37.377Z,5.60
2023-02-01T19:41:07.084Z,5.60
2023-02-01T19:43:35.319Z,5.60
2023-02-01T19:46:03.469Z,5.60
2023-02-01T19:48:34.147Z,5.60
2023-02-01T19:51:02.104Z,5.50
2023-02-01T19:53:30.135Z,5.60
2023-02-01T19:55:59.374Z,5.60
2023-02-01T19:58:28.520Z,5.60
2023-02-01T20:00:56.070Z,5.40
2023-02-01T20:03:23.955Z,5.60
2023-02-01T20:05:52.477Z,5.60
2023-02-01T20:08:20.829Z,5.60
2023-02-01T20:10:48.754Z,5.60
2023-02-01T20:13:16.832Z,5.60
2023-02-01T20:15:46.620Z,5.60
2023-02-01T20:18:14.558Z,5.60
2023-02-01T20:20:42.760Z,5.60
2023-02-01T20:23:10.868Z,5.60
2023-02-01T20:25:39.600Z,5.60
2023-02-01T20:28:07.405Z,5.60
2023-02-01T20:30:35.255Z,5.60
2023-02-01T20:33:04.526Z,5.60
2023-02-01T20:35:33.032Z,5.60
2023-02-01T20:38:01.802Z,5.60
2023-02-01T20:40:31.219Z,5.70
2023-02-01T20:42:59.011Z,5.70
2023-02-01T20:45:27.108Z,5.60
2023-02-01T20:47:54.919Z,5.60
2023-02-01T20:50:25.110Z,5.60
2023-02-01T20:52:52.938Z,5.60
2023-02-01T20:55:20.760Z,5.50
2023-02-01T20:57:48.590Z,5.60
2023-02-01T21:00:16.750Z,5.50
2023-02-01T21:02:44.648Z,5.50
2023-02-01T21:05:12.862Z,5.50
2023-02-01T21:07:42.503Z,5.50
2023-02-01T21:10:11.873Z,5.50
2023-02-01T21:12:39.723Z,5.40
2023-02-01T21:15:08.598Z,5.40
2023-02-01T21:17:39.197Z,5.40
2023-02-01T21:20:08.624Z,5.50
2023-02-01T21:22:36.421Z,5.40
2023-02-01T21:25:06.305Z,5.50
2023-02-01T21:27:34.103Z,5.40
2023-02-01T21:30:01.907Z,5.40
2023-02-01T21:32:29.711Z,5.70
2023-02-01T21:34:58.503Z,5.40
2023-02-01T21:37:27.080Z,5.70
2023-02-01T21:39:56.342Z,5.40
2023-02-01T21:42:26.598Z,5.40
2023-02-01T21:44:55.132Z,5.40
2023-02-01T21:47:26.060Z,5.50
2023-02-01T21:49:54.856Z,5.50
2023-02-01T21:52:23.848Z,5.50
2023-02-01T21:54:59.133Z,5.50
2023-02-01T21:57:28.685Z,5.10
2023-02-01T21:59:58.675Z,5.50
2023-02-01T22:02:26.778Z,5.50
2023-02-01T22:04:58.679Z,5.40
2023-02-01T22:07:26.500Z,5.50
2023-02-01T22:09:54.277Z,5.50
2023-02-01T22:12:22.846Z,5.50
2023-02-01T22:14:52.018Z,5.40
2023-02-01T22:17:19.830Z,5.40
2023-02-01T22:19:47.624Z,5.50
2023-02-01T22:22:16.503Z,5.50
2023-02-01T22:24:44.348Z,5.50
2023-02-01T22:27:13.737Z,5.50
2023-02-01T22:29:42.641Z,5.50
2023-02-01T22:32:13.737Z,5.50
2023-02-01T22:34:41.651Z,5.50
2023-02-01T22:37:11.160Z,5.50
2023-02-01T22:39:40.505Z,5.60
2023-02-01T22:42:08.417Z,5.50
2023-02-01T22:44:36.307Z,5.30
2023-02-01T22:47:04.186Z,5.80
2023-02-01T22:49:33.430Z,5.50
2023-02-01T22:52:01.569Z,5.50
2023-02-01T22:54:29.390Z,5.50
2023-02-01T22:56:57.223Z,6.20
2023-02-01T22:59:25.049Z,5.50
2023-02-01T23:01:53.096Z,5.50
2023-02-01T23:04:21.382Z,5.50
2023-02-01T23:06:52.013Z,5.50
2023-02-01T23:09:21.692Z,5.50
2023-02-01T23:11:49.841Z,5.50
2023-02-01T23:14:17.788Z,5.60
2023-02-01T23:16:46.827Z,5.50
2023-02-01T23:19:15.279Z,5.40
2023-02-01T23:21:43.549Z,5.50
2023-02-01T23:24:13.034Z,6.00
2023-02-01T23:26:42.435Z,5.50
2023-02-01T23:29:17.957Z,5.50
2023-02-01T23:31:46.058Z,5.50
2023-02-01T23:34:13.901Z,5.50
2023-02-01T23:36:41.683Z,5.80
2023-02-01T23:39:09.546Z,5.50
2023-02-01T23:41:38.701Z,5.50
2023-02-01T23:44:06.727Z,5.40
2023-02-01T23:46:36.247Z,5.50
2023-02-01T23:49:05.928Z,5.50
2023-02-01T23:51:34.254Z,5.50
2023-02-01T23:54:02.421Z,5.50
2023-02-01T23:56:33.064Z,5.50
2023-02-01T23:59:03.200Z,5.50
